EPZG/IEG METAR and TAF weather

Enter ICAO airport designator
Station Type Date Time Source
EPZG METAR 2019/08/21 20:00 UTC NOAA

EPZG 212000Z 22002KT CAVOK 15/13 Q1028


Station Type Date Time Source
EPZG Decoded METAR 2019/08/21 20:00 UTC NOAA

Station name not available
Aug 21, 2019 - 04:00 PM EDT / 2019.08.21 2000 UTC
Wind: from the SW (220 degrees) at 2 MPH (2 KT):0
Visibility: greater than 7 mile(s):0
Temperature: 59 F (15 C)
Dew Point: 55 F (13 C)
Relative Humidity: 87%
Pressure (altimeter): 30.36 in. Hg (1028 hPa)
ob: EPZG 212000Z 22002KT CAVOK 15/13 Q1028
cycle: 20

Station Type Date Time Source
EPZG TAF 2012/06/28 21:49 UTC NOAA

TAF EPZG 282000Z 2821/2906 VRB02KT CAVOK
TEMPO 2823/2904 5000 BR PROB30 2900/2904 1500 BR BKN005

Example: see airport list